Air Resources Laboratory banner image
Air Resources Laboratory web site National Oceanic and Atmospheric Administration (NOAA)

de metar


KDOV 110456Z AUTO 25005KT 10SM FEW007 SCT060 BKN090 23/23 A2996 RMK AO2 SLP149
 T02330233=
KGED 110454Z AUTO 24006KT 10SM FEW041 FEW050 24/23 A2999 RMK AO2 SLP155
 T02390228 403440239 $=
KILG 110451Z AUTO 24004KT 10SM FEW110 26/23 A2996 RMK AO2 SLP144 T02560233
 403330233=